createdAt,value
2022-11-30T00:01:23.201Z,13.20
2022-11-30T00:03:54.532Z,12.02
2022-11-30T00:06:23.872Z,12.38
2022-11-30T00:08:54.036Z,11.00
2022-11-30T00:11:24.668Z,8.48
2022-11-30T00:13:52.914Z,9.23
2022-11-30T00:16:20.783Z,12.25
2022-11-30T00:18:48.760Z,10.93
2022-11-30T00:21:17.095Z,9.95
2022-11-30T00:23:47.123Z,8.60
2022-11-30T00:26:17.964Z,11.95
2022-11-30T00:28:47.799Z,11.75
2022-11-30T00:31:17.756Z,14.52
2022-11-30T00:33:45.814Z,13.35
2022-11-30T00:36:15.719Z,12.57
2022-11-30T00:38:44.047Z,12.73
2022-11-30T00:41:12.261Z,14.45
2022-11-30T00:43:40.210Z,12.32
2022-11-30T00:46:10.241Z,12.18
2022-11-30T00:48:38.717Z,13.25
2022-11-30T00:51:07.553Z,11.50
2022-11-30T00:53:35.825Z,19.90
2022-11-30T00:56:03.651Z,13.18
2022-11-30T00:58:31.482Z,12.25
2022-11-30T01:00:59.405Z,12.38
2022-11-30T01:03:28.770Z,11.80
2022-11-30T01:05:56.558Z,11.85
2022-11-30T01:08:25.625Z,13.85
2022-11-30T01:10:53.767Z,14.93
2022-11-30T01:13:21.589Z,14.98
2022-11-30T01:15:49.487Z,11.63
2022-11-30T01:18:19.021Z,13.25
2022-11-30T01:20:48.244Z,12.07
2022-11-30T01:23:16.030Z,14.93
2022-11-30T01:25:43.817Z,12.02
2022-11-30T01:28:11.905Z,10.65
2022-11-30T01:30:39.981Z,10.88
2022-11-30T01:33:07.786Z,12.38
2022-11-30T01:35:35.667Z,14.63
2022-11-30T01:38:05.191Z,11.00
2022-11-30T01:40:32.944Z,12.77
2022-11-30T01:43:00.777Z,16.45
2022-11-30T01:45:28.823Z,15.40
2022-11-30T01:47:58.465Z,12.70
2022-11-30T01:50:31.560Z,13.55
2022-11-30T01:53:00.011Z,10.35
2022-11-30T01:55:33.717Z,10.65
2022-11-30T01:58:04.952Z,11.93
2022-11-30T02:00:33.590Z,10.98
2022-11-30T02:03:04.452Z,12.63
2022-11-30T02:05:34.666Z,10.30
2022-11-30T02:08:02.997Z,12.13
2022-11-30T02:10:35.604Z,10.43
2022-11-30T02:13:39.537Z,13.20
2022-11-30T02:16:19.318Z,11.90
2022-11-30T02:18:56.438Z,12.38
2022-11-30T02:21:30.254Z,11.05
2022-11-30T02:24:15.660Z,10.75
2022-11-30T02:26:59.343Z,14.05
2022-11-30T02:29:31.569Z,11.38
2022-11-30T02:32:06.196Z,10.82
2022-11-30T02:34:36.983Z,11.73
2022-11-30T02:37:08.135Z,11.65
2022-11-30T02:39:36.230Z,14.00
2022-11-30T02:42:04.166Z,11.43
2022-11-30T02:44:33.689Z,11.55
2022-11-30T02:47:11.313Z,12.55
2022-11-30T02:49:47.939Z,12.43
2022-11-30T02:52:16.476Z,13.85
2022-11-30T02:54:44.660Z,11.30
2022-11-30T02:57:12.895Z,11.75
2022-11-30T02:59:42.570Z,12.88
2022-11-30T03:02:10.454Z,11.13
2022-11-30T03:04:38.232Z,13.45
2022-11-30T03:07:08.366Z,12.05
2022-11-30T03:09:36.162Z,10.80
2022-11-30T03:12:04.534Z,11.27
2022-11-30T03:14:32.370Z,11.23
2022-11-30T03:17:01.710Z,12.20
2022-11-30T03:19:29.507Z,13.07
2022-11-30T03:21:57.352Z,12.27
2022-11-30T03:24:25.282Z,14.50
2022-11-30T03:26:54.031Z,11.73
2022-11-30T03:29:21.853Z,16.98
2022-11-30T03:31:49.812Z,11.73
2022-11-30T03:34:19.067Z,11.52
2022-11-30T03:36:47.324Z,13.00
2022-11-30T03:39:15.210Z,14.07
2022-11-30T03:41:43.169Z,12.05
2022-11-30T03:44:11.494Z,11.20
2022-11-30T03:46:39.365Z,12.13
2022-11-30T03:49:07.326Z,18.05
2022-11-30T03:51:36.731Z,14.98
2022-11-30T03:54:04.844Z,11.55
2022-11-30T03:56:32.667Z,13.38
2022-11-30T03:59:00.531Z,11.32
2022-11-30T04:01:28.587Z,10.95
2022-11-30T04:03:56.490Z,13.00
2022-11-30T04:06:24.904Z,13.70
2022-11-30T04:08:54.191Z,12.35
2022-11-30T04:11:22.030Z,11.15
2022-11-30T04:13:49.833Z,10.68
2022-11-30T04:16:17.697Z,12.63
2022-11-30T04:18:45.606Z,12.15
2022-11-30T04:21:13.583Z,12.63
2022-11-30T04:23:42.070Z,13.77
2022-11-30T04:26:14.647Z,13.55
2022-11-30T04:28:42.670Z,14.55
2022-11-30T04:31:10.639Z,11.50
2022-11-30T04:33:38.801Z,12.43
2022-11-30T04:36:08.857Z,19.25
2022-11-30T04:38:37.930Z,16.52
2022-11-30T04:41:09.062Z,11.23
2022-11-30T04:43:38.564Z,11.10
2022-11-30T04:46:07.665Z,13.77
2022-11-30T04:48:36.066Z,14.80
2022-11-30T04:51:05.853Z,12.65
2022-11-30T04:53:35.278Z,13.93
2022-11-30T04:56:06.959Z,13.75
2022-11-30T04:58:35.363Z,14.60
2022-11-30T05:01:04.631Z,11.82
2022-11-30T05:03:32.547Z,12.90
2022-11-30T05:06:00.432Z,14.88
2022-11-30T05:08:28.302Z,13.98
2022-11-30T05:10:56.735Z,13.07
2022-11-30T05:13:26.363Z,13.65
2022-11-30T05:15:54.607Z,14.07
2022-11-30T05:18:24.104Z,13.15
2022-11-30T05:20:54.088Z,13.18
2022-11-30T05:23:22.932Z,16.05
2022-11-30T05:25:51.143Z,15.13
2022-11-30T05:28:18.944Z,13.27
2022-11-30T05:30:47.079Z,14.60
2022-11-30T05:33:14.891Z,14.23
2022-11-30T05:35:44.733Z,13.40
2022-11-30T05:38:12.715Z,13.05
2022-11-30T05:40:40.757Z,14.00
2022-11-30T05:43:08.502Z,15.55
2022-11-30T05:45:36.299Z,11.73
2022-11-30T05:48:04.219Z,18.10
2022-11-30T05:50:32.713Z,15.00
2022-11-30T05:53:01.865Z,12.80
2022-11-30T05:55:32.319Z,14.70
2022-11-30T05:58:00.234Z,18.05
2022-11-30T06:00:28.727Z,17.23
2022-11-30T06:02:58.254Z,21.17
2022-11-30T06:05:26.817Z,18.65
2022-11-30T06:07:54.900Z,21.13
2022-11-30T06:10:25.329Z,26.77
2022-11-30T06:12:53.682Z,37.30
2022-11-30T06:15:21.451Z,39.95
2022-11-30T06:17:49.308Z,36.78
2022-11-30T06:20:17.320Z,38.28
2022-11-30T06:22:46.963Z,34.50
2022-11-30T06:25:15.434Z,44.17
2022-11-30T06:27:44.638Z,36.33
2022-11-30T06:30:13.774Z,24.52
2022-11-30T06:32:41.616Z,19.98
2022-11-30T06:35:10.187Z,19.17
2022-11-30T06:37:38.067Z,20.27
2022-11-30T06:40:07.969Z,16.67
2022-11-30T06:42:37.429Z,19.50
2022-11-30T06:45:08.116Z,27.23
2022-11-30T06:47:36.415Z,29.45
2022-11-30T06:50:05.167Z,26.75
2022-11-30T06:52:33.488Z,31.17
2022-11-30T06:55:01.552Z,32.95
2022-11-30T06:57:30.086Z,28.63
2022-11-30T06:59:58.363Z,23.92
2022-11-30T07:02:27.596Z,22.15
2022-11-30T07:04:55.354Z,21.65
2022-11-30T07:07:23.282Z,27.70
2022-11-30T07:09:51.064Z,24.00
2022-11-30T07:12:19.150Z,20.65
2022-11-30T07:14:47.326Z,26.10
2022-11-30T07:17:15.483Z,25.63
2022-11-30T07:19:44.891Z,28.20
2022-11-30T07:22:12.652Z,23.65
2022-11-30T07:24:57.843Z,26.73
2022-11-30T07:27:25.976Z,28.17
2022-11-30T07:29:53.907Z,29.80
2022-11-30T07:32:21.769Z,30.10
2022-11-30T07:34:51.062Z,32.65
2022-11-30T07:37:19.054Z,33.63
2022-11-30T07:39:46.958Z,28.25
2022-11-30T07:42:14.734Z,31.10
2022-11-30T07:44:42.651Z,27.98
2022-11-30T07:47:10.596Z,28.65
2022-11-30T07:49:39.757Z,28.73
2022-11-30T07:52:09.118Z,31.15
2022-11-30T07:54:36.990Z,26.85
2022-11-30T07:57:04.915Z,32.13
2022-11-30T07:59:32.729Z,32.47
2022-11-30T08:02:01.564Z,34.75
2022-11-30T08:04:29.507Z,36.75
2022-11-30T08:06:57.477Z,33.45
2022-11-30T08:09:26.701Z,41.95
2022-11-30T08:11:54.583Z,40.50
2022-11-30T08:14:22.402Z,47.80
2022-11-30T08:16:50.271Z,38.42
2022-11-30T08:19:18.062Z,42.20
2022-11-30T08:21:45.876Z,38.80
2022-11-30T08:24:14.220Z,40.45
2022-11-30T08:26:43.519Z,34.38
2022-11-30T08:29:11.838Z,36.47
2022-11-30T08:31:40.796Z,39.33
2022-11-30T08:34:11.221Z,37.35
2022-11-30T08:36:39.999Z,48.65
2022-11-30T08:39:09.666Z,42.55
2022-11-30T08:41:39.102Z,47.00
2022-11-30T08:44:08.663Z,53.85
2022-11-30T08:46:53.404Z,51.83
2022-11-30T08:49:23.492Z,37.78
2022-11-30T08:52:16.350Z,43.80
2022-11-30T08:54:45.728Z,37.65
2022-11-30T08:57:14.384Z,33.55
2022-11-30T08:59:44.018Z,42.45
2022-11-30T09:02:13.961Z,35.70
2022-11-30T09:04:42.296Z,35.75
2022-11-30T09:07:10.556Z,41.78
2022-11-30T09:09:39.737Z,44.83
2022-11-30T09:12:08.531Z,50.42
2022-11-30T09:14:36.431Z,53.80
2022-11-30T09:17:05.646Z,51.30
2022-11-30T09:19:33.554Z,48.85
2022-11-30T09:22:01.598Z,39.97
2022-11-30T09:24:29.450Z,49.13
2022-11-30T09:26:57.854Z,52.65
2022-11-30T09:29:25.780Z,46.72
2022-11-30T09:31:53.649Z,42.65
2022-11-30T09:34:22.985Z,54.45
2022-11-30T09:36:50.795Z,53.25
2022-11-30T09:39:18.651Z,41.72
2022-11-30T09:42:09.387Z,41.05
2022-11-30T09:44:48.041Z,43.42
2022-11-30T09:47:36.610Z,38.42
2022-11-30T09:50:13.815Z,42.47
2022-11-30T09:52:45.043Z,37.65
2022-11-30T09:55:17.827Z,36.42
2022-11-30T09:57:48.154Z,35.38
2022-11-30T10:00:19.107Z,37.88
2022-11-30T10:02:47.114Z,30.50
2022-11-30T10:05:18.941Z,38.40
2022-11-30T10:08:03.516Z,33.08
2022-11-30T10:10:40.131Z,38.95
2022-11-30T10:13:24.411Z,36.13
2022-11-30T10:16:04.840Z,32.17
2022-11-30T10:18:41.969Z,37.30
2022-11-30T10:21:23.925Z,41.13
2022-11-30T10:24:03.720Z,33.00
2022-11-30T10:26:35.220Z,37.67
2022-11-30T10:29:14.612Z,37.55
2022-11-30T10:31:44.505Z,29.33
2022-11-30T10:34:20.520Z,27.88
2022-11-30T10:36:55.490Z,22.33
2022-11-30T10:39:29.679Z,26.40
2022-11-30T10:42:03.635Z,20.45
2022-11-30T10:44:35.466Z,18.95
2022-11-30T10:47:08.930Z,17.17
2022-11-30T10:49:39.583Z,19.25
2022-11-30T10:52:12.588Z,19.40
2022-11-30T10:54:40.454Z,20.75
2022-11-30T10:57:08.961Z,25.20
2022-11-30T10:59:43.916Z,21.80
2022-11-30T11:02:38.553Z,19.20
2022-11-30T11:05:15.533Z,20.25
2022-11-30T11:07:52.134Z,14.10
2022-11-30T11:10:22.092Z,20.83
2022-11-30T11:12:51.301Z,17.83
2022-11-30T11:15:22.251Z,14.80
2022-11-30T11:17:50.544Z,15.52
2022-11-30T11:20:34.698Z,12.25
2022-11-30T11:23:05.250Z,14.20
2022-11-30T11:25:35.811Z,11.90
2022-11-30T11:28:09.138Z,10.88
2022-11-30T11:30:38.445Z,12.98
2022-11-30T11:33:21.048Z,9.30
2022-11-30T11:35:50.524Z,10.68
2022-11-30T11:38:25.604Z,8.85
2022-11-30T11:40:56.186Z,8.68
2022-11-30T11:43:26.599Z,10.95
2022-11-30T11:45:56.794Z,10.02
2022-11-30T11:48:31.800Z,13.13
2022-11-30T11:51:08.747Z,11.60
2022-11-30T11:53:53.724Z,11.02
2022-11-30T11:56:27.011Z,14.27
2022-11-30T11:58:59.875Z,17.25
2022-11-30T12:01:52.075Z,20.23
2022-11-30T12:04:43.776Z,18.67
2022-11-30T12:07:20.936Z,18.33
2022-11-30T12:10:02.506Z,18.17
2022-11-30T12:12:30.617Z,18.65
2022-11-30T12:14:58.504Z,18.75
2022-11-30T12:17:48.119Z,16.70
2022-11-30T12:20:25.891Z,19.73
2022-11-30T12:23:09.130Z,20.30
2022-11-30T12:25:42.720Z,19.50
2022-11-30T12:28:20.954Z,17.65
2022-11-30T12:30:58.857Z,20.08
2022-11-30T12:33:38.750Z,20.27
2022-11-30T12:36:17.638Z,20.60
2022-11-30T12:38:50.617Z,20.40
2022-11-30T12:41:36.474Z,21.08
2022-11-30T12:44:38.506Z,17.02
2022-11-30T12:47:22.227Z,18.60
2022-11-30T12:50:02.757Z,20.38
2022-11-30T12:52:41.173Z,19.48
2022-11-30T12:55:25.254Z,20.05
2022-11-30T12:58:00.991Z,22.95
2022-11-30T13:00:36.729Z,25.55
2022-11-30T13:03:30.732Z,27.65
2022-11-30T13:06:02.293Z,23.40
2022-11-30T13:08:35.927Z,23.50
2022-11-30T13:11:09.684Z,26.58
2022-11-30T13:13:47.686Z,35.92
2022-11-30T13:16:16.389Z,24.58
2022-11-30T13:18:44.600Z,37.42
2022-11-30T13:21:22.966Z,38.47
2022-11-30T13:24:00.943Z,42.50
2022-11-30T13:26:35.364Z,41.90
2022-11-30T13:29:24.651Z,54.28
2022-11-30T13:31:57.094Z,52.58
2022-11-30T13:34:28.062Z,67.47
2022-11-30T13:37:07.592Z,68.40
2022-11-30T13:39:47.297Z,62.28
2022-11-30T13:42:34.481Z,55.40
2022-11-30T13:48:31.440Z,98.03
2022-11-30T13:50:59.546Z,59.47
2022-11-30T13:53:34.075Z,45.67
2022-11-30T13:56:04.300Z,77.32
2022-11-30T13:58:32.861Z,86.85
2022-11-30T14:01:22.821Z,73.95
2022-11-30T14:04:36.523Z,66.72
2022-11-30T14:07:26.348Z,66.90
2022-11-30T14:10:00.303Z,67.13
2022-11-30T14:12:59.919Z,49.28
2022-11-30T14:15:44.335Z,50.30
2022-11-30T14:18:21.662Z,46.58
2022-11-30T14:20:53.836Z,58.80
2022-11-30T14:23:27.751Z,47.60
2022-11-30T14:25:58.062Z,43.83
2022-11-30T14:28:32.303Z,50.33
2022-11-30T14:31:01.669Z,61.45
2022-11-30T14:33:41.316Z,50.60
2022-11-30T14:36:09.990Z,51.08
2022-11-30T14:38:42.835Z,47.78
2022-11-30T14:41:21.141Z,45.88
2022-11-30T14:44:07.829Z,51.25
2022-11-30T14:46:36.486Z,46.72
2022-11-30T14:49:23.038Z,51.50
2022-11-30T14:51:53.382Z,48.80
2022-11-30T14:54:38.805Z,40.08
2022-11-30T14:57:16.623Z,43.50
2022-11-30T14:59:50.953Z,40.30
2022-11-30T15:02:27.130Z,44.70
2022-11-30T15:04:56.401Z,40.47
2022-11-30T15:07:25.989Z,37.33
2022-11-30T15:10:01.428Z,43.42
2022-11-30T15:12:29.254Z,41.97
2022-11-30T15:15:13.768Z,38.03
2022-11-30T15:17:54.042Z,45.65
2022-11-30T15:20:30.046Z,38.28
2022-11-30T15:23:00.743Z,39.22
2022-11-30T15:25:38.174Z,37.53
2022-11-30T15:28:07.939Z,40.78
2022-11-30T15:30:39.604Z,36.47
2022-11-30T15:33:07.648Z,32.10
2022-11-30T15:35:57.409Z,38.97
2022-11-30T15:38:27.400Z,43.85
2022-11-30T15:41:04.787Z,37.65
2022-11-30T15:43:37.989Z,38.00
2022-11-30T15:46:07.060Z,37.55
2022-11-30T15:48:38.942Z,36.88
2022-11-30T15:51:07.878Z,36.33
2022-11-30T15:53:36.892Z,33.28
2022-11-30T15:56:08.385Z,37.60
2022-11-30T15:58:45.593Z,38.42
2022-11-30T16:01:17.015Z,42.08
2022-11-30T16:04:07.038Z,44.72
2022-11-30T16:06:45.116Z,43.90
2022-11-30T16:09:21.111Z,41.97
2022-11-30T16:11:54.205Z,51.78
2022-11-30T16:14:22.423Z,53.28
2022-11-30T16:16:53.020Z,40.95
2022-11-30T16:19:21.468Z,44.03
2022-11-30T16:21:50.966Z,52.88
2022-11-30T16:24:18.963Z,56.22
2022-11-30T16:26:51.431Z,60.30
2022-11-30T16:29:21.409Z,58.75
2022-11-30T16:31:49.342Z,55.67
2022-11-30T16:34:17.253Z,66.28
2022-11-30T16:36:45.068Z,73.20
2022-11-30T16:39:13.806Z,70.25
2022-11-30T16:41:41.574Z,75.20
2022-11-30T16:44:14.415Z,91.18
2022-11-30T16:46:43.793Z,100.32
2022-11-30T16:49:11.638Z,88.82
2022-11-30T16:51:41.816Z,89.28
2022-11-30T16:54:12.317Z,91.18
2022-11-30T16:56:40.174Z,117.47
2022-11-30T16:59:13.430Z,100.13
2022-11-30T17:01:48.098Z,90.78
2022-11-30T17:04:20.231Z,93.75
2022-11-30T17:06:50.920Z,99.60
2022-11-30T17:09:20.699Z,111.53
2022-11-30T17:11:50.799Z,103.00
2022-11-30T17:14:20.158Z,99.72
2022-11-30T17:16:49.589Z,89.78
2022-11-30T17:19:17.463Z,94.68
2022-11-30T17:21:45.813Z,90.82
2022-11-30T17:24:14.021Z,98.57
2022-11-30T17:26:42.006Z,104.35
2022-11-30T17:29:09.977Z,87.47
2022-11-30T17:31:38.040Z,92.32
2022-11-30T17:34:08.782Z,76.80
2022-11-30T17:36:36.647Z,80.55
2022-11-30T17:39:07.544Z,87.72
2022-11-30T17:41:35.419Z,76.43
2022-11-30T17:44:03.476Z,80.88
2022-11-30T17:46:31.472Z,68.97
2022-11-30T17:48:59.336Z,90.70
2022-11-30T17:51:29.138Z,85.63
2022-11-30T17:53:57.509Z,75.63
2022-11-30T17:56:25.981Z,78.78
2022-11-30T17:58:53.818Z,83.70
2022-11-30T18:01:23.361Z,102.72
2022-11-30T18:03:53.620Z,101.00
2022-11-30T18:06:21.520Z,103.88
2022-11-30T18:08:50.743Z,90.13
2022-11-30T18:11:20.342Z,92.47
2022-11-30T18:13:48.483Z,100.53
2022-11-30T18:16:19.339Z,81.32
2022-11-30T18:18:48.673Z,83.72
2022-11-30T18:21:19.283Z,82.15
2022-11-30T18:23:48.052Z,84.70
2022-11-30T18:26:20.028Z,76.22
2022-11-30T18:28:51.927Z,79.20
2022-11-30T18:31:19.845Z,76.05
2022-11-30T18:33:47.948Z,71.30
2022-11-30T18:36:15.907Z,83.63
2022-11-30T18:38:44.380Z,72.53
2022-11-30T18:41:12.192Z,59.33
2022-11-30T18:43:41.545Z,58.38
2022-11-30T18:46:11.276Z,62.15
2022-11-30T18:48:40.757Z,55.33
2022-11-30T18:51:13.378Z,71.38
2022-11-30T18:53:41.796Z,65.55
2022-11-30T18:56:11.320Z,56.15
2022-11-30T18:58:39.162Z,57.58
2022-11-30T19:01:10.294Z,56.63
2022-11-30T19:03:38.851Z,53.22
2022-11-30T19:06:08.914Z,53.33
2022-11-30T19:08:37.436Z,55.70
2022-11-30T19:11:06.095Z,52.83
2022-11-30T19:13:34.266Z,40.13
2022-11-30T19:16:02.961Z,36.40
2022-11-30T19:18:32.302Z,40.35
2022-11-30T19:21:02.728Z,43.88
2022-11-30T19:23:30.573Z,36.08
2022-11-30T19:26:01.635Z,39.30
2022-11-30T19:28:30.879Z,34.55
2022-11-30T19:31:01.200Z,35.85
2022-11-30T19:33:29.049Z,35.95
2022-11-30T19:36:03.156Z,35.65
2022-11-30T19:38:30.905Z,36.50
2022-11-30T19:40:58.843Z,30.92
2022-11-30T19:43:26.658Z,32.53
2022-11-30T19:45:55.068Z,40.13
2022-11-30T19:48:23.187Z,40.78
2022-11-30T19:50:51.313Z,44.28
2022-11-30T19:53:20.578Z,46.15
2022-11-30T19:55:48.337Z,46.25
2022-11-30T19:58:16.185Z,51.35
2022-11-30T20:00:46.538Z,52.40
2022-11-30T20:03:14.404Z,67.63
2022-11-30T20:05:49.112Z,64.10
2022-11-30T20:08:17.672Z,57.42
2022-11-30T20:10:46.895Z,59.75
2022-11-30T20:13:14.738Z,60.28
2022-11-30T20:15:42.739Z,58.85
2022-11-30T20:18:11.150Z,59.03
2022-11-30T20:20:38.967Z,53.20
2022-11-30T20:23:07.044Z,58.28
2022-11-30T20:25:35.318Z,56.35
2022-11-30T20:28:09.646Z,52.30
2022-11-30T20:30:40.178Z,57.25
2022-11-30T20:33:08.062Z,54.72
2022-11-30T20:35:36.179Z,58.40
2022-11-30T20:38:04.058Z,60.63
2022-11-30T20:40:31.834Z,54.92
2022-11-30T20:42:59.635Z,56.28
2022-11-30T20:45:29.107Z,57.08
2022-11-30T20:47:56.901Z,45.88
2022-11-30T20:50:24.715Z,43.85
2022-11-30T20:52:52.473Z,38.22
2022-11-30T20:55:20.330Z,39.72
2022-11-30T20:57:49.572Z,45.70
2022-11-30T21:00:18.319Z,35.72
2022-11-30T21:02:47.658Z,43.83
2022-11-30T21:05:18.915Z,42.97
2022-11-30T21:07:46.961Z,34.30
2022-11-30T21:10:14.847Z,32.45
2022-11-30T21:12:42.987Z,38.17
2022-11-30T21:15:11.677Z,36.05
2022-11-30T21:17:39.591Z,39.75
2022-11-30T21:20:10.172Z,30.33
2022-11-30T21:22:37.970Z,39.13
2022-11-30T21:25:06.813Z,39.35
2022-11-30T21:27:34.847Z,36.92
2022-11-30T21:30:02.724Z,39.95
2022-11-30T21:32:30.544Z,37.35
2022-11-30T21:34:58.471Z,39.33
2022-11-30T21:37:27.678Z,34.05
2022-11-30T21:39:55.481Z,31.80
2022-11-30T21:42:23.408Z,33.17
2022-11-30T21:44:51.875Z,38.47
2022-11-30T21:47:19.785Z,35.85
2022-11-30T21:49:47.741Z,33.30
2022-11-30T21:52:15.541Z,30.75
2022-11-30T21:54:44.813Z,33.35
2022-11-30T21:57:12.574Z,32.95
2022-11-30T21:59:40.408Z,33.67
2022-11-30T22:02:10.097Z,34.50
2022-11-30T22:04:38.232Z,36.35
2022-11-30T22:07:06.728Z,36.92
2022-11-30T22:09:34.582Z,38.63
2022-11-30T22:12:03.913Z,34.42
2022-11-30T22:14:31.800Z,36.03
2022-11-30T22:17:00.306Z,33.78
2022-11-30T22:19:28.274Z,33.85
2022-11-30T22:21:56.230Z,34.97
2022-11-30T22:24:24.196Z,30.52
2022-11-30T22:26:52.058Z,32.85
2022-11-30T22:29:24.205Z,34.65
2022-11-30T22:31:54.815Z,31.40
2022-11-30T22:34:22.794Z,34.72
2022-11-30T22:36:50.724Z,35.97
2022-11-30T22:39:20.161Z,30.30
2022-11-30T22:41:54.668Z,29.40
2022-11-30T22:44:26.789Z,30.73
2022-11-30T22:46:54.736Z,30.27
2022-11-30T22:49:22.879Z,27.48
2022-11-30T22:51:51.605Z,29.52
2022-11-30T22:54:19.964Z,29.73
2022-11-30T22:56:48.113Z,33.85
2022-11-30T22:59:16.660Z,35.92
2022-11-30T23:01:47.842Z,35.45
2022-11-30T23:04:17.661Z,30.65
2022-11-30T23:06:46.190Z,33.65
2022-11-30T23:09:16.228Z,30.42
2022-11-30T23:11:45.620Z,27.60
2022-11-30T23:14:15.988Z,27.27
2022-11-30T23:16:46.308Z,27.70
2022-11-30T23:19:14.815Z,29.80
2022-11-30T23:21:45.424Z,28.63
2022-11-30T23:24:20.217Z,30.38
2022-11-30T23:26:48.267Z,26.55
2022-11-30T23:29:17.748Z,33.03
2022-11-30T23:31:47.618Z,22.95
2022-11-30T23:34:17.301Z,28.52
2022-11-30T23:36:45.169Z,26.17
2022-11-30T23:39:14.889Z,26.88
2022-11-30T23:41:43.337Z,26.23
2022-11-30T23:44:11.962Z,27.27
2022-11-30T23:46:40.117Z,28.23
2022-11-30T23:49:09.400Z,24.02
2022-11-30T23:51:37.360Z,21.55
2022-11-30T23:54:05.525Z,24.92
2022-11-30T23:56:33.476Z,23.20
2022-11-30T23:59:01.219Z,22.83
